createdAt,value
2019-06-26T00:01:50.978Z,19.70
2019-06-26T00:04:26.110Z,19.85
2019-06-26T00:07:03.600Z,19.62
2019-06-26T00:09:38.500Z,19.45
2019-06-26T00:12:10.750Z,19.28
2019-06-26T00:14:45.843Z,19.26
2019-06-26T00:17:16.526Z,19.45
2019-06-26T00:19:48.193Z,19.40
2019-06-26T00:22:24.068Z,19.11
2019-06-26T00:24:54.738Z,18.99
2019-06-26T00:27:25.737Z,18.79
2019-06-26T00:29:59.777Z,18.85
2019-06-26T00:32:32.901Z,19.24
2019-06-26T00:35:08.958Z,19.00
2019-06-26T00:37:39.842Z,19.04
2019-06-26T00:40:13.987Z,19.02
2019-06-26T00:42:44.883Z,18.92
2019-06-26T00:45:22.610Z,19.05
2019-06-26T00:47:53.655Z,18.75
2019-06-26T00:50:25.768Z,18.60
2019-06-26T00:52:58.758Z,18.40
2019-06-26T00:55:31.306Z,18.48
2019-06-26T00:58:04.126Z,18.59
2019-06-26T01:00:40.370Z,18.52
2019-06-26T01:03:14.172Z,18.43
2019-06-26T01:05:46.583Z,18.47
2019-06-26T01:08:18.499Z,18.25
2019-06-26T01:10:52.219Z,18.16
2019-06-26T01:13:26.787Z,18.33
2019-06-26T01:15:58.955Z,18.12
2019-06-26T01:18:29.981Z,18.32
2019-06-26T01:21:00.794Z,18.44
2019-06-26T01:23:40.514Z,18.35
2019-06-26T01:26:11.168Z,18.01
2019-06-26T01:28:41.924Z,18.26
2019-06-26T01:31:14.267Z,18.02
2019-06-26T01:33:45.096Z,18.42
2019-06-26T01:36:15.797Z,18.08
2019-06-26T01:38:52.566Z,17.98
2019-06-26T01:41:24.039Z,18.28
2019-06-26T01:44:13.354Z,18.23
2019-06-26T01:46:36.394Z,18.53
2019-06-26T01:49:14.697Z,18.18
2019-06-26T01:51:48.776Z,18.40
2019-06-26T01:54:24.198Z,18.07
2019-06-26T01:56:57.927Z,18.19
2019-06-26T01:59:29.935Z,18.29
2019-06-26T02:02:11.730Z,17.88
2019-06-26T02:04:53.373Z,17.94
2019-06-26T02:07:20.760Z,18.00
2019-06-26T02:09:54.216Z,18.03
2019-06-26T02:13:12.663Z,17.98
2019-06-26T02:14:57.914Z,18.15
2019-06-26T02:17:35.368Z,18.14
2019-06-26T02:20:07.750Z,17.92
2019-06-26T02:22:44.009Z,18.04
2019-06-26T02:25:21.068Z,18.33
2019-06-26T02:27:53.238Z,17.90
2019-06-26T02:30:24.433Z,17.80
2019-06-26T02:32:58.257Z,18.14
2019-06-26T02:35:30.887Z,17.90
2019-06-26T02:38:07.524Z,17.86
2019-06-26T02:40:43.062Z,17.78
2019-06-26T02:43:14.192Z,18.16
2019-06-26T02:45:45.153Z,17.77
2019-06-26T02:48:22.251Z,17.77
2019-06-26T02:50:53.195Z,17.76
2019-06-26T02:53:26.949Z,17.81
2019-06-26T02:56:01.489Z,17.82
2019-06-26T02:58:33.991Z,17.83
2019-06-26T03:01:07.354Z,17.78
2019-06-26T03:03:40.764Z,18.12
2019-06-26T03:06:14.485Z,17.89
2019-06-26T03:08:45.345Z,17.66
2019-06-26T03:11:17.816Z,17.69
2019-06-26T03:13:50.613Z,17.82
2019-06-26T03:16:27.934Z,17.87
2019-06-26T03:19:00.141Z,18.16
2019-06-26T03:21:38.739Z,17.78
2019-06-26T03:24:18.484Z,17.63
2019-06-26T03:26:49.351Z,17.73
2019-06-26T03:29:24.704Z,17.94
2019-06-26T03:31:58.958Z,17.80
2019-06-26T03:34:31.080Z,18.21
2019-06-26T03:37:01.726Z,17.71
2019-06-26T03:39:32.317Z,17.72
2019-06-26T03:42:02.765Z,17.78
2019-06-26T03:44:34.545Z,17.91
2019-06-26T03:47:05.090Z,17.72
2019-06-26T03:49:35.701Z,17.71
2019-06-26T03:52:10.820Z,18.09
2019-06-26T03:54:41.246Z,18.18
2019-06-26T03:57:11.843Z,18.04
2019-06-26T03:59:42.301Z,17.72
2019-06-26T04:02:13.547Z,17.83
2019-06-26T04:05:04.296Z,18.10
2019-06-26T04:07:36.627Z,18.35
2019-06-26T04:10:10.174Z,18.09
2019-06-26T04:12:46.598Z,17.95
2019-06-26T04:15:17.427Z,18.04
2019-06-26T04:17:51.994Z,17.99
2019-06-26T04:20:26.889Z,18.00
2019-06-26T04:22:59.765Z,17.95
2019-06-26T04:25:37.880Z,17.99
2019-06-26T04:28:08.072Z,18.12
2019-06-26T04:30:39.611Z,17.92
2019-06-26T04:33:10.127Z,17.97
2019-06-26T04:35:42.142Z,17.84
2019-06-26T04:38:12.972Z,18.21
2019-06-26T04:40:44.301Z,17.73
2019-06-26T04:43:15.329Z,17.76
2019-06-26T04:45:57.688Z,17.87
2019-06-26T04:48:17.966Z,18.06
2019-06-26T04:50:50.832Z,17.91
2019-06-26T04:53:21.192Z,17.78
2019-06-26T04:55:53.360Z,18.18
2019-06-26T04:58:32.713Z,18.30
2019-06-26T05:01:05.731Z,18.02
2019-06-26T05:03:40.847Z,18.04
2019-06-26T05:06:11.810Z,18.28
2019-06-26T05:08:44.575Z,18.10
2019-06-26T05:11:18.628Z,18.20
2019-06-26T05:13:55.597Z,18.15
2019-06-26T05:16:31.493Z,18.20
2019-06-26T05:19:02.236Z,18.07
2019-06-26T05:21:33.016Z,17.79
2019-06-26T05:24:03.326Z,17.71
2019-06-26T05:26:36.062Z,18.10
2019-06-26T05:29:09.090Z,17.83
2019-06-26T05:31:39.589Z,17.75
2019-06-26T05:34:13.736Z,17.94
2019-06-26T05:36:47.126Z,17.75
2019-06-26T05:39:24.120Z,18.10
2019-06-26T05:41:54.939Z,18.27
2019-06-26T05:44:27.390Z,18.18
2019-06-26T05:47:00.833Z,18.03
2019-06-26T05:49:35.325Z,17.98
2019-06-26T05:52:07.691Z,17.94
2019-06-26T05:54:38.508Z,18.30
2019-06-26T05:57:09.021Z,17.95
2019-06-26T05:59:40.182Z,18.07
2019-06-26T06:02:13.171Z,18.09
2019-06-26T06:04:45.928Z,17.73
2019-06-26T06:07:16.401Z,17.79
2019-06-26T06:09:47.252Z,17.85
2019-06-26T06:12:17.820Z,17.61
2019-06-26T06:14:48.186Z,17.67
2019-06-26T06:17:20.557Z,17.44
2019-06-26T06:19:50.778Z,17.66
2019-06-26T06:22:20.956Z,17.83
2019-06-26T06:24:51.149Z,17.75
2019-06-26T06:27:21.553Z,17.53
2019-06-26T06:29:51.781Z,17.79
2019-06-26T06:32:21.944Z,17.95
2019-06-26T06:34:52.155Z,18.05
2019-06-26T06:37:22.305Z,17.92
2019-06-26T06:39:52.494Z,17.94
2019-06-26T06:42:22.695Z,18.02
2019-06-26T06:44:53.371Z,17.70
2019-06-26T06:47:26.469Z,17.74
2019-06-26T06:49:56.637Z,17.92
2019-06-26T06:52:26.802Z,18.00
2019-06-26T06:54:58.364Z,17.72
2019-06-26T06:57:28.579Z,17.64
2019-06-26T06:59:58.794Z,17.67
2019-06-26T07:02:28.999Z,17.98
2019-06-26T07:04:59.234Z,17.64
2019-06-26T07:07:29.408Z,17.69
2019-06-26T07:09:59.637Z,17.41
2019-06-26T07:12:29.913Z,17.43
2019-06-26T07:15:00.125Z,17.68
2019-06-26T07:17:32.519Z,17.59
2019-06-26T07:20:02.863Z,17.50
2019-06-26T07:22:34.300Z,17.59
2019-06-26T07:25:07.126Z,17.40
2019-06-26T07:27:38.615Z,17.66
2019-06-26T07:30:09.110Z,17.44
2019-06-26T07:32:39.838Z,17.79
2019-06-26T07:35:10.138Z,17.70
2019-06-26T07:37:42.050Z,17.63
2019-06-26T07:40:12.817Z,17.70
2019-06-26T07:42:42.983Z,17.75
2019-06-26T07:45:15.432Z,17.74
2019-06-26T07:47:45.944Z,17.95
2019-06-26T07:50:16.518Z,17.64
2019-06-26T07:52:46.855Z,17.71
2019-06-26T07:55:17.123Z,18.23
2019-06-26T07:57:47.348Z,18.20
2019-06-26T08:00:17.917Z,18.14
2019-06-26T08:02:48.257Z,17.93
2019-06-26T08:05:20.165Z,17.65
2019-06-26T08:07:50.306Z,17.97
2019-06-26T08:10:21.119Z,17.73
2019-06-26T08:12:53.104Z,17.98
2019-06-26T08:15:23.399Z,18.01
2019-06-26T08:18:00.757Z,18.06
2019-06-26T08:20:25.518Z,18.21
2019-06-26T08:22:55.676Z,18.20
2019-06-26T08:25:25.851Z,18.34
2019-06-26T08:27:56.096Z,18.11
2019-06-26T08:30:27.613Z,18.25
2019-06-26T08:32:57.929Z,18.16
2019-06-26T08:35:28.081Z,18.26
2019-06-26T08:38:09.824Z,17.87
2019-06-26T08:40:30.238Z,17.98
2019-06-26T08:43:00.472Z,18.09
2019-06-26T08:45:30.651Z,18.29
2019-06-26T08:48:16.886Z,18.33
2019-06-26T08:50:34.393Z,18.26
2019-06-26T08:53:04.660Z,18.38
2019-06-26T08:55:34.771Z,18.69
2019-06-26T08:58:05.249Z,18.78
2019-06-26T09:00:36.566Z,18.52
2019-06-26T09:03:08.279Z,18.60
2019-06-26T09:05:47.925Z,18.66
2019-06-26T09:08:10.930Z,18.66
2019-06-26T09:10:44.909Z,18.71
2019-06-26T09:13:14.055Z,19.08
2019-06-26T09:15:44.281Z,19.04
2019-06-26T09:18:14.365Z,19.05
2019-06-26T09:20:44.734Z,19.45
2019-06-26T09:23:15.837Z,19.52
2019-06-26T09:25:45.947Z,19.62
2019-06-26T09:28:17.281Z,19.67
2019-06-26T09:30:47.479Z,19.49
2019-06-26T09:33:17.698Z,19.59
2019-06-26T09:35:47.907Z,19.43
2019-06-26T09:38:18.170Z,19.85
2019-06-26T09:40:48.363Z,20.08
2019-06-26T09:43:20.209Z,20.18
2019-06-26T09:45:50.643Z,20.19
2019-06-26T09:48:20.891Z,20.06
2019-06-26T09:50:51.139Z,20.06
2019-06-26T09:53:21.394Z,19.95
2019-06-26T09:55:51.586Z,20.07
2019-06-26T09:58:21.734Z,19.72
2019-06-26T10:00:51.940Z,20.30
2019-06-26T10:03:22.159Z,20.37
2019-06-26T10:05:52.261Z,20.30
2019-06-26T10:08:22.460Z,20.22
2019-06-26T10:10:52.663Z,20.63
2019-06-26T10:13:22.707Z,20.79
2019-06-26T10:15:52.986Z,20.12
2019-06-26T10:18:23.180Z,20.37
2019-06-26T10:20:53.425Z,20.48
2019-06-26T10:23:23.624Z,20.40
2019-06-26T10:25:53.833Z,20.35
2019-06-26T10:28:24.194Z,20.49
2019-06-26T10:30:54.336Z,20.49
2019-06-26T10:33:24.653Z,20.67
2019-06-26T10:35:55.822Z,20.45
2019-06-26T10:38:27.903Z,20.72
2019-06-26T10:40:58.123Z,20.64
2019-06-26T10:43:28.365Z,21.15
2019-06-26T10:45:58.853Z,21.51
2019-06-26T10:48:29.175Z,21.51
2019-06-26T10:51:01.832Z,21.29
2019-06-26T10:53:32.027Z,21.20
2019-06-26T10:56:02.272Z,20.83
2019-06-26T10:58:32.502Z,20.74
2019-06-26T11:01:02.877Z,21.46
2019-06-26T11:03:33.154Z,21.38
2019-06-26T11:06:03.506Z,21.41
2019-06-26T11:08:36.241Z,21.64
2019-06-26T11:11:06.413Z,20.74
2019-06-26T11:13:36.786Z,21.18
2019-06-26T11:16:08.100Z,21.97
2019-06-26T11:18:38.489Z,21.00
2019-06-26T11:21:08.618Z,21.40
2019-06-26T11:23:38.788Z,20.93
2019-06-26T11:26:09.025Z,21.46
2019-06-26T11:28:39.190Z,22.13
2019-06-26T11:31:09.339Z,21.57
2019-06-26T11:33:39.480Z,20.95
2019-06-26T11:36:09.568Z,21.28
2019-06-26T11:38:40.872Z,21.19
2019-06-26T11:41:12.202Z,21.46
2019-06-26T11:43:42.479Z,21.48
2019-06-26T11:46:12.614Z,21.21
2019-06-26T11:48:42.767Z,21.69
2019-06-26T11:51:12.905Z,20.94
2019-06-26T11:53:43.129Z,21.03
2019-06-26T11:56:13.763Z,21.24
2019-06-26T11:58:44.158Z,21.49
2019-06-26T12:01:14.387Z,21.63
2019-06-26T12:03:44.623Z,21.54
2019-06-26T12:06:18.881Z,21.81
2019-06-26T12:08:46.750Z,21.54
2019-06-26T12:11:17.061Z,21.74
2019-06-26T12:13:47.270Z,21.85
2019-06-26T12:16:19.871Z,21.38
2019-06-26T12:18:54.201Z,22.03
2019-06-26T12:21:29.404Z,22.06
2019-06-26T12:23:59.715Z,22.21
2019-06-26T12:26:32.155Z,22.02
2019-06-26T12:29:06.868Z,22.16
2019-06-26T12:31:41.293Z,22.10
2019-06-26T12:34:15.637Z,21.58
2019-06-26T12:37:08.446Z,22.93
2019-06-26T12:39:48.464Z,21.93
2019-06-26T12:42:26.584Z,22.29
2019-06-26T12:44:57.578Z,22.55
2019-06-26T12:47:37.094Z,22.04
2019-06-26T12:50:11.785Z,22.15
2019-06-26T12:52:59.523Z,21.80
2019-06-26T12:55:43.514Z,21.77
2019-06-26T12:58:19.753Z,21.77
2019-06-26T13:00:50.604Z,22.08
2019-06-26T13:03:25.111Z,22.10
2019-06-26T13:05:59.199Z,22.25
2019-06-26T13:08:30.096Z,22.16
2019-06-26T13:11:01.036Z,22.44
2019-06-26T13:13:39.813Z,23.08
2019-06-26T13:16:12.990Z,22.69
2019-06-26T13:18:51.396Z,22.67
2019-06-26T13:21:30.162Z,23.13
2019-06-26T13:24:01.375Z,23.13
2019-06-26T13:26:37.113Z,22.44
2019-06-26T13:29:14.934Z,23.11
2019-06-26T13:31:52.451Z,23.03
2019-06-26T13:34:33.852Z,23.19
2019-06-26T13:37:07.503Z,24.07
2019-06-26T13:39:49.335Z,23.49
2019-06-26T13:42:25.356Z,22.72
2019-06-26T13:44:59.571Z,23.32
2019-06-26T13:47:44.643Z,23.20
2019-06-26T13:50:17.383Z,22.77
2019-06-26T13:52:48.280Z,23.52
2019-06-26T13:56:03.426Z,24.15
2019-06-26T13:58:35.836Z,24.07
2019-06-26T14:01:09.751Z,24.03
2019-06-26T14:03:44.089Z,23.60
2019-06-26T14:06:24.091Z,23.44
2019-06-26T14:08:57.812Z,23.11
2019-06-26T14:11:32.355Z,23.48
2019-06-26T14:14:05.314Z,23.03
2019-06-26T14:16:35.540Z,23.19
2019-06-26T14:19:05.672Z,23.84
2019-06-26T14:21:36.137Z,23.58
2019-06-26T14:24:06.342Z,22.28
2019-06-26T14:26:36.537Z,24.39
2019-06-26T14:29:20.002Z,23.53
2019-06-26T14:31:38.716Z,22.66
2019-06-26T14:34:08.967Z,22.59
2019-06-26T14:36:39.288Z,22.22
2019-06-26T14:39:11.258Z,23.19
2019-06-26T14:41:52.147Z,23.62
2019-06-26T14:44:22.444Z,23.90
2019-06-26T14:46:52.706Z,23.20
2019-06-26T14:49:22.974Z,22.64
2019-06-26T14:51:54.398Z,22.18
2019-06-26T14:54:24.692Z,21.77
2019-06-26T14:57:14.047Z,22.52
2019-06-26T14:59:44.481Z,22.27
2019-06-26T15:02:14.979Z,22.76
2019-06-26T15:04:46.247Z,23.50
2019-06-26T15:07:19.112Z,22.67
2019-06-26T15:09:52.332Z,22.36
2019-06-26T15:12:22.925Z,22.37
2019-06-26T15:14:56.185Z,21.60
2019-06-26T15:17:26.683Z,21.74
2019-06-26T15:19:57.310Z,21.75
2019-06-26T15:22:27.531Z,22.06
2019-06-26T15:24:57.821Z,21.74
2019-06-26T15:33:30.225Z,21.44
2019-06-26T15:43:12.506Z,21.52
2019-06-26T15:46:52.906Z,20.97
2019-06-26T15:49:57.529Z,21.23
2019-06-26T15:53:39.981Z,20.86
2019-06-26T15:56:44.304Z,21.52
2019-06-26T16:00:18.799Z,21.79
2019-06-26T16:03:26.522Z,20.84
2019-06-26T16:06:22.784Z,21.64
2019-06-26T16:09:59.021Z,21.36
2019-06-26T16:13:04.778Z,20.07
2019-06-26T16:15:45.443Z,20.17
2019-06-26T16:18:48.082Z,19.93
2019-06-26T16:31:43.339Z,20.27
2019-06-26T16:34:22.779Z,20.23
2019-06-26T16:37:11.637Z,19.59
2019-06-26T16:40:13.106Z,19.76
2019-06-26T16:42:53.150Z,19.85
2019-06-26T16:45:52.982Z,19.60
2019-06-26T16:48:41.935Z,19.70
2019-06-26T16:51:49.495Z,19.69
2019-06-26T16:54:53.323Z,19.47
2019-06-26T16:57:47.255Z,19.82
2019-06-26T18:14:04.935Z,18.06
2019-06-26T18:19:11.216Z,17.97
2019-06-26T18:21:32.580Z,18.21
2019-06-26T18:24:16.056Z,18.13
2019-06-26T18:43:27.243Z,18.00
2019-06-26T18:54:35.313Z,18.00
2019-06-26T19:28:02.562Z,17.10
2019-06-26T19:30:40.833Z,17.37
2019-06-26T19:33:07.814Z,17.46
2019-06-26T19:35:38.195Z,17.19
2019-06-26T19:38:14.542Z,17.24
2019-06-26T19:40:45.136Z,17.00
2019-06-26T19:43:33.483Z,17.12
2019-06-26T19:46:03.953Z,17.23
2019-06-26T19:49:04.156Z,16.87
2019-06-26T19:51:53.447Z,17.03
2019-06-26T19:54:31.043Z,16.93
2019-06-26T19:56:57.868Z,16.87
2019-06-26T19:59:32.594Z,17.20
2019-06-26T20:02:10.493Z,16.89
2019-06-26T20:04:48.148Z,17.01
2019-06-26T20:07:38.163Z,17.04
2019-06-26T20:10:10.999Z,17.09
2019-06-26T20:12:45.856Z,16.79
2019-06-26T20:15:20.620Z,16.85
2019-06-26T20:17:52.254Z,16.89
2019-06-26T20:20:26.047Z,17.13
2019-06-26T20:22:59.368Z,17.02
2019-06-26T20:25:32.806Z,16.94
2019-06-26T20:28:03.028Z,16.98
2019-06-26T20:30:34.338Z,16.74
2019-06-26T20:33:04.577Z,16.73
2019-06-26T20:35:44.065Z,16.53
2019-06-26T20:38:18.767Z,16.61
2019-06-26T20:41:04.991Z,16.94
2019-06-26T20:43:48.891Z,16.57
2019-06-26T20:46:30.849Z,16.57
2019-06-26T20:49:01.460Z,16.37
2019-06-26T20:51:36.638Z,16.61
2019-06-26T20:54:12.945Z,16.43
2019-06-26T20:56:44.356Z,16.48
2019-06-26T20:59:19.317Z,16.44
2019-06-26T21:01:52.258Z,16.67
2019-06-26T21:04:24.082Z,16.57
2019-06-26T21:06:54.355Z,16.41
2019-06-26T21:09:29.154Z,16.67
2019-06-26T21:11:59.872Z,16.57
2019-06-26T21:14:35.270Z,16.61
2019-06-26T21:17:10.672Z,16.50
2019-06-26T21:19:42.275Z,16.40
2019-06-26T21:22:12.582Z,16.29
2019-06-26T21:24:44.167Z,16.47
2019-06-26T21:27:18.266Z,16.30
2019-06-26T21:29:48.629Z,16.40
2019-06-26T21:32:18.948Z,16.19
2019-06-26T21:34:49.325Z,16.27
2019-06-26T21:37:19.678Z,16.01
2019-06-26T21:39:49.839Z,16.23
2019-06-26T21:42:21.097Z,16.21
2019-06-26T21:44:51.269Z,16.11
2019-06-26T21:47:22.763Z,16.18
2019-06-26T21:49:52.961Z,16.26
2019-06-26T21:52:23.574Z,16.00
2019-06-26T21:54:54.886Z,15.98
2019-06-26T21:57:44.530Z,16.02
2019-06-26T22:00:34.630Z,15.93
2019-06-26T22:03:26.138Z,15.72
2019-06-26T22:06:13.535Z,16.01
2019-06-26T22:08:57.637Z,15.72
2019-06-26T22:11:28.904Z,15.71
2019-06-26T22:13:59.233Z,15.87
2019-06-26T22:16:29.635Z,15.81
2019-06-26T22:19:00.974Z,15.66
2019-06-26T22:21:31.205Z,15.88
2019-06-26T22:24:01.414Z,15.83
2019-06-26T22:26:31.734Z,15.80
2019-06-26T22:29:02.023Z,15.73
2019-06-26T22:31:32.240Z,15.70
2019-06-26T22:34:02.443Z,15.91
2019-06-26T22:36:32.622Z,15.74
2019-06-26T22:39:02.828Z,15.85
2019-06-26T22:41:36.990Z,15.58
2019-06-26T22:44:07.287Z,15.66
2019-06-26T22:46:38.878Z,15.58
2019-06-26T22:49:09.080Z,15.53
2019-06-26T22:51:39.224Z,15.72
2019-06-26T22:54:09.559Z,15.74
2019-06-26T22:56:41.086Z,15.72
2019-06-26T22:59:14.432Z,15.59
2019-06-26T23:01:44.670Z,15.65
2019-06-26T23:04:14.868Z,15.75
2019-06-26T23:06:47.192Z,15.64
2019-06-26T23:09:17.403Z,15.44
2019-06-26T23:11:47.604Z,15.76
2019-06-26T23:14:17.941Z,15.57
2019-06-26T23:16:48.102Z,15.43
2019-06-26T23:19:18.311Z,15.60
2019-06-26T23:21:48.454Z,15.56
2019-06-26T23:24:20.111Z,15.35
2019-06-26T23:26:51.382Z,15.18
2019-06-26T23:29:22.088Z,15.28
2019-06-26T23:31:52.358Z,15.22
2019-06-26T23:34:22.588Z,15.43
2019-06-26T23:36:53.848Z,15.43
2019-06-26T23:39:24.829Z,15.45
2019-06-26T23:41:55.099Z,15.39
2019-06-26T23:44:25.363Z,15.32
2019-06-26T23:46:55.682Z,15.43
2019-06-26T23:49:25.947Z,15.22
2019-06-26T23:51:56.097Z,15.36
2019-06-26T23:54:26.334Z,15.27
2019-06-26T23:56:56.494Z,15.27
2019-06-26T23:59:26.733Z,15.07
